createdAt,value
2022-10-13T00:01:52.916Z,139.77
2022-10-13T00:04:19.902Z,134.48
2022-10-13T00:06:46.700Z,151.10
2022-10-13T00:09:13.548Z,139.23
2022-10-13T00:11:40.560Z,131.38
2022-10-13T00:14:07.320Z,136.00
2022-10-13T00:16:34.105Z,133.70
2022-10-13T00:19:01.464Z,133.55
2022-10-13T00:21:28.477Z,131.10
2022-10-13T00:23:55.579Z,131.20
2022-10-13T00:26:23.941Z,136.40
2022-10-13T00:28:52.939Z,133.27
2022-10-13T00:31:25.196Z,131.48
2022-10-13T00:33:53.016Z,132.45
2022-10-13T00:36:20.464Z,126.30
2022-10-13T00:38:47.256Z,132.20
2022-10-13T00:41:14.406Z,129.10
2022-10-13T00:44:05.082Z,134.23
2022-10-13T00:46:33.752Z,136.57
2022-10-13T00:49:08.561Z,140.25
2022-10-13T00:51:40.873Z,136.93
2022-10-13T00:54:07.996Z,141.02
2022-10-13T00:56:34.768Z,128.07
2022-10-13T00:59:01.824Z,137.48
2022-10-13T01:01:28.671Z,134.27
2022-10-13T01:03:55.470Z,135.80
2022-10-13T01:06:23.787Z,131.45
2022-10-13T01:08:51.080Z,134.43
2022-10-13T01:11:36.796Z,135.00
2022-10-13T01:14:16.539Z,134.05
2022-10-13T01:17:03.632Z,129.02
2022-10-13T01:19:39.409Z,136.30
2022-10-13T01:22:26.292Z,134.65
2022-10-13T01:24:56.784Z,144.00
2022-10-13T01:27:44.909Z,132.07
2022-10-13T01:30:21.884Z,141.93
2022-10-13T01:33:18.037Z,141.32
2022-10-13T01:36:05.873Z,133.20
2022-10-13T01:38:47.613Z,143.35
2022-10-13T01:41:19.344Z,135.70
2022-10-13T01:43:52.136Z,131.65
2022-10-13T01:46:22.332Z,134.93
2022-10-13T01:48:49.138Z,134.15
2022-10-13T01:51:17.987Z,129.70
2022-10-13T01:53:45.651Z,132.02
2022-10-13T01:56:12.523Z,132.75
2022-10-13T01:58:39.348Z,123.88
2022-10-13T02:01:15.247Z,128.75
2022-10-13T02:03:44.872Z,127.13
2022-10-13T02:06:30.867Z,122.10
2022-10-13T02:11:32.683Z,126.03
2022-10-13T02:14:04.891Z,132.35
2022-10-13T02:16:35.236Z,120.85
2022-10-13T02:19:03.520Z,118.30
2022-10-13T02:21:30.487Z,124.80
2022-10-13T02:23:57.527Z,120.90
2022-10-13T02:26:25.031Z,122.70
2022-10-13T02:28:52.057Z,123.78
2022-10-13T02:31:18.871Z,119.43
2022-10-13T02:33:45.952Z,121.28
2022-10-13T02:36:12.708Z,116.80
2022-10-13T02:38:39.462Z,108.32
2022-10-13T02:41:06.444Z,110.38
2022-10-13T02:43:37.125Z,115.03
2022-10-13T02:46:04.094Z,109.97
2022-10-13T02:48:31.126Z,107.95
2022-10-13T02:50:57.950Z,108.95
2022-10-13T02:53:24.747Z,107.55
2022-10-13T02:55:51.787Z,108.53
2022-10-13T02:58:18.537Z,108.50
2022-10-13T03:00:45.377Z,104.88
2022-10-13T03:03:12.602Z,107.05
2022-10-13T03:05:39.382Z,110.80
2022-10-13T03:08:06.214Z,104.60
2022-10-13T03:10:33.349Z,101.13
2022-10-13T03:13:00.543Z,111.85
2022-10-13T03:15:27.298Z,109.22
2022-10-13T03:17:54.269Z,107.60
2022-10-13T03:20:21.081Z,110.10
2022-10-13T03:22:49.895Z,110.68
2022-10-13T03:25:17.317Z,107.45
2022-10-13T03:27:44.043Z,102.80
2022-10-13T03:30:11.588Z,104.32
2022-10-13T03:32:38.567Z,108.55
2022-10-13T03:35:06.402Z,99.57
2022-10-13T03:37:33.217Z,101.65
2022-10-13T03:40:00.177Z,107.88
2022-10-13T03:42:27.014Z,101.95
2022-10-13T03:44:56.302Z,104.80
2022-10-13T03:47:23.686Z,103.25
2022-10-13T03:49:50.473Z,102.45
2022-10-13T03:52:17.734Z,103.25
2022-10-13T03:54:45.046Z,103.22
2022-10-13T03:57:11.809Z,105.50
2022-10-13T03:59:41.756Z,99.63
2022-10-13T04:02:08.848Z,95.18
2022-10-13T04:04:37.285Z,103.10
2022-10-13T04:07:04.156Z,106.75
2022-10-13T04:09:31.174Z,96.22
2022-10-13T04:11:57.933Z,98.45
2022-10-13T04:14:24.697Z,94.82
2022-10-13T04:16:51.682Z,99.40
2022-10-13T04:19:18.456Z,100.68
2022-10-13T04:21:45.285Z,100.28
2022-10-13T04:24:12.937Z,100.07
2022-10-13T04:26:40.037Z,86.55
2022-10-13T04:29:07.641Z,99.55
2022-10-13T04:31:34.825Z,96.78
2022-10-13T04:34:01.593Z,97.63
2022-10-13T04:36:28.426Z,93.70
2022-10-13T04:38:55.525Z,93.07
2022-10-13T04:41:22.637Z,102.55
2022-10-13T04:43:53.027Z,93.07
2022-10-13T04:46:21.933Z,93.70
2022-10-13T04:48:48.756Z,93.47
2022-10-13T04:51:20.649Z,87.70
2022-10-13T04:53:47.601Z,87.70
2022-10-13T04:56:16.100Z,96.45
2022-10-13T04:58:44.197Z,81.13
2022-10-13T05:01:22.536Z,93.32
2022-10-13T05:03:57.548Z,87.65
2022-10-13T05:06:29.860Z,88.97
2022-10-13T05:08:57.088Z,88.32
2022-10-13T05:11:24.491Z,86.20
2022-10-13T05:13:51.362Z,90.22
2022-10-13T05:16:19.253Z,86.15
2022-10-13T05:18:46.100Z,85.63
2022-10-13T05:21:20.880Z,83.80
2022-10-13T05:23:47.863Z,85.85
2022-10-13T05:26:18.160Z,91.38
2022-10-13T05:28:45.191Z,88.65
2022-10-13T05:31:19.984Z,94.85
2022-10-13T05:33:47.317Z,88.95
2022-10-13T05:36:16.448Z,87.18
2022-10-13T05:38:43.288Z,84.38
2022-10-13T05:41:12.429Z,82.55
2022-10-13T05:43:40.465Z,86.30
2022-10-13T05:46:08.117Z,89.30
2022-10-13T05:48:35.096Z,85.18
2022-10-13T05:51:04.443Z,86.82
2022-10-13T05:53:32.888Z,82.70
2022-10-13T05:56:06.189Z,85.95
2022-10-13T05:58:34.627Z,79.20
2022-10-13T06:01:01.664Z,84.90
2022-10-13T06:03:28.712Z,88.60
2022-10-13T06:05:55.718Z,83.75
2022-10-13T06:08:22.540Z,91.13
2022-10-13T06:10:49.543Z,92.05
2022-10-13T06:13:16.243Z,86.35
2022-10-13T06:15:43.061Z,86.05
2022-10-13T06:18:10.375Z,92.10
2022-10-13T06:20:37.203Z,90.18
2022-10-13T06:23:04.064Z,84.13
2022-10-13T06:25:31.183Z,90.97
2022-10-13T06:27:59.959Z,84.43
2022-10-13T06:30:27.131Z,89.15
2022-10-13T06:32:58.385Z,84.80
2022-10-13T06:35:25.194Z,84.80
2022-10-13T06:37:53.193Z,81.15
2022-10-13T06:40:20.078Z,87.25
2022-10-13T06:42:51.008Z,84.53
2022-10-13T06:45:19.359Z,85.07
2022-10-13T06:47:46.447Z,81.35
2022-10-13T06:50:13.499Z,81.15
2022-10-13T06:52:40.555Z,79.63
2022-10-13T06:55:07.621Z,81.38
2022-10-13T06:57:34.695Z,78.35
2022-10-13T07:00:01.731Z,79.05
2022-10-13T07:02:29.338Z,76.07
2022-10-13T07:04:56.090Z,74.78
2022-10-13T07:07:23.244Z,73.68
2022-10-13T07:09:49.986Z,74.97
2022-10-13T07:12:17.328Z,66.55
2022-10-13T07:14:44.330Z,68.78
2022-10-13T07:17:11.118Z,73.80
2022-10-13T07:19:38.134Z,72.90
2022-10-13T07:22:04.979Z,71.43
2022-10-13T07:24:31.775Z,72.53
2022-10-13T07:26:59.585Z,69.07
2022-10-13T07:29:28.502Z,64.20
2022-10-13T07:31:55.476Z,67.43
2022-10-13T07:34:22.635Z,66.20
2022-10-13T07:36:49.430Z,62.78
2022-10-13T07:39:16.443Z,63.78
2022-10-13T07:41:45.457Z,66.97
2022-10-13T07:44:15.775Z,63.90
2022-10-13T07:46:42.554Z,59.47
2022-10-13T07:49:11.222Z,57.58
2022-10-13T07:51:40.797Z,61.95
2022-10-13T07:54:07.567Z,56.13
2022-10-13T07:56:34.650Z,59.25
2022-10-13T07:59:02.027Z,57.28
2022-10-13T08:01:29.075Z,58.33
2022-10-13T08:03:56.764Z,54.03
2022-10-13T08:06:23.727Z,62.67
2022-10-13T08:08:50.566Z,53.90
2022-10-13T08:11:17.735Z,52.53
2022-10-13T08:13:49.457Z,53.80
2022-10-13T08:16:17.115Z,54.72
2022-10-13T08:18:44.159Z,52.75
2022-10-13T08:24:01.916Z,52.63
2022-10-13T08:26:28.968Z,53.95
2022-10-13T08:29:24.743Z,53.60
2022-10-13T08:31:43.289Z,51.03
2022-10-13T08:34:10.506Z,48.63
2022-10-13T08:36:38.079Z,50.10
2022-10-13T08:39:05.205Z,50.97
2022-10-13T08:41:36.498Z,52.00
2022-10-13T08:44:56.669Z,47.45
2022-10-13T08:47:05.579Z,47.38
2022-10-13T08:49:32.640Z,46.13
2022-10-13T08:51:59.794Z,45.05
2022-10-13T08:54:26.798Z,44.17
2022-10-13T08:56:53.662Z,44.80
2022-10-13T08:59:21.778Z,45.42
2022-10-13T09:01:52.183Z,40.03
2022-10-13T09:04:33.108Z,41.25
2022-10-13T09:07:09.284Z,41.13
2022-10-13T09:09:36.906Z,41.42
2022-10-13T09:12:04.352Z,42.85
2022-10-13T09:14:33.089Z,40.10
2022-10-13T09:17:23.854Z,36.47
2022-10-13T09:20:21.288Z,39.92
2022-10-13T09:23:05.422Z,37.97
2022-10-13T09:25:43.140Z,29.95
2022-10-13T09:28:30.556Z,35.80
2022-10-13T09:31:03.751Z,34.08
2022-10-13T09:33:34.137Z,34.05
2022-10-13T09:36:02.228Z,32.80
2022-10-13T09:38:29.182Z,28.70
2022-10-13T09:41:01.749Z,27.67
2022-10-13T09:43:28.763Z,35.47
2022-10-13T09:45:55.639Z,29.23
2022-10-13T09:48:27.790Z,30.48
2022-10-13T09:50:56.063Z,29.77
2022-10-13T09:53:40.402Z,29.35
2022-10-13T09:56:08.286Z,27.02
2022-10-13T09:58:37.389Z,28.17
2022-10-13T10:01:04.222Z,26.55
2022-10-13T10:03:33.798Z,26.77
2022-10-13T10:06:01.978Z,28.60
2022-10-13T10:09:01.568Z,27.60
2022-10-13T10:11:43.556Z,24.75
2022-10-13T10:14:18.205Z,26.77
2022-10-13T10:16:49.619Z,23.50
2022-10-13T10:19:38.406Z,25.98
2022-10-13T10:22:24.125Z,24.58
2022-10-13T10:24:59.647Z,27.23
2022-10-13T10:27:41.319Z,24.23
2022-10-13T10:30:14.900Z,22.13
2022-10-13T10:33:03.400Z,22.63
2022-10-13T10:35:57.507Z,27.10
2022-10-13T10:38:44.134Z,22.52
2022-10-13T10:41:43.349Z,19.85
2022-10-13T10:44:15.023Z,19.77
2022-10-13T10:46:51.668Z,21.17
2022-10-13T10:49:20.636Z,22.40
2022-10-13T10:51:47.525Z,21.90
2022-10-13T10:54:19.834Z,20.67
2022-10-13T10:56:54.445Z,16.92
2022-10-13T10:59:43.128Z,19.17
2022-10-13T11:02:33.348Z,17.63
2022-10-13T11:05:05.299Z,18.35
2022-10-13T11:07:33.340Z,19.38
2022-10-13T11:10:00.099Z,17.00
2022-10-13T11:12:45.597Z,17.65
2022-10-13T11:15:38.716Z,20.20
2022-10-13T11:18:44.296Z,18.20
2022-10-13T11:21:11.036Z,18.83
2022-10-13T11:23:38.052Z,17.02
2022-10-13T11:26:31.240Z,20.65
2022-10-13T11:28:58.679Z,16.98
2022-10-13T11:31:35.262Z,17.40
2022-10-13T11:34:03.573Z,18.45
2022-10-13T11:36:45.632Z,16.38
2022-10-13T11:42:21.629Z,18.65
2022-10-13T11:44:55.343Z,22.45
2022-10-13T11:47:27.807Z,17.75
2022-10-13T11:50:06.975Z,23.15
2022-10-13T11:52:33.698Z,18.88
2022-10-13T11:55:15.443Z,19.77
2022-10-13T11:57:42.184Z,22.67
2022-10-13T12:00:17.211Z,21.20
2022-10-13T12:02:51.924Z,21.10
2022-10-13T12:05:21.606Z,21.50
2022-10-13T12:07:48.359Z,21.02
2022-10-13T12:10:19.527Z,24.90
2022-10-13T12:12:48.352Z,19.15
2022-10-13T12:15:44.585Z,18.45
2022-10-13T12:18:34.127Z,24.83
2022-10-13T12:21:03.814Z,19.15
2022-10-13T12:23:31.895Z,21.42
2022-10-13T12:25:59.098Z,17.95
2022-10-13T12:28:47.341Z,22.20
2022-10-13T12:31:19.722Z,21.08
2022-10-13T12:33:52.650Z,19.13
2022-10-13T12:36:31.209Z,19.95
2022-10-13T12:39:03.010Z,18.77
2022-10-13T12:41:32.490Z,19.33
2022-10-13T12:44:01.249Z,20.40
2022-10-13T12:46:36.059Z,23.63
2022-10-13T12:49:07.446Z,22.33
2022-10-13T12:51:36.270Z,19.20
2022-10-13T12:54:07.542Z,21.15
2022-10-13T12:56:34.526Z,22.13
2022-10-13T12:59:01.417Z,22.75
2022-10-13T13:01:33.050Z,22.35
2022-10-13T13:04:19.495Z,19.65
2022-10-13T13:07:00.018Z,25.38
2022-10-13T13:09:38.839Z,24.13
2022-10-13T13:12:12.174Z,25.50
2022-10-13T13:14:42.667Z,25.45
2022-10-13T13:17:32.989Z,23.63
2022-10-13T13:20:28.405Z,28.20
2022-10-13T13:22:55.660Z,22.75
2022-10-13T13:25:22.557Z,29.50
2022-10-13T13:27:49.378Z,19.40
2022-10-13T13:30:26.353Z,24.10
2022-10-13T13:32:53.206Z,24.33
2022-10-13T13:35:20.257Z,24.33
2022-10-13T13:37:48.925Z,25.40
2022-10-13T13:40:17.589Z,22.52
2022-10-13T13:42:44.601Z,25.35
2022-10-13T13:45:15.309Z,26.27
2022-10-13T13:47:42.073Z,20.55
2022-10-13T13:50:24.072Z,21.05
2022-10-13T13:52:50.904Z,22.45
2022-10-13T13:55:18.026Z,24.05
2022-10-13T13:57:44.916Z,20.27
2022-10-13T14:00:13.355Z,22.48
2022-10-13T14:02:40.313Z,21.67
2022-10-13T14:05:07.725Z,21.67
2022-10-13T14:07:35.944Z,21.48
2022-10-13T14:10:02.834Z,22.88
2022-10-13T14:12:32.860Z,22.90
2022-10-13T14:14:59.919Z,23.05
2022-10-13T14:17:27.584Z,21.92
2022-10-13T14:19:54.685Z,23.33
2022-10-13T14:22:22.442Z,20.85
2022-10-13T14:24:49.422Z,22.23
2022-10-13T14:27:16.205Z,21.20
2022-10-13T14:29:43.509Z,23.27
2022-10-13T14:32:10.284Z,22.88
2022-10-13T14:34:37.026Z,24.23
2022-10-13T14:37:03.986Z,21.25
2022-10-13T14:39:30.803Z,21.80
2022-10-13T14:41:57.541Z,26.80
2022-10-13T14:44:24.526Z,23.23
2022-10-13T14:46:51.247Z,20.73
2022-10-13T14:49:17.968Z,20.23
2022-10-13T14:51:45.015Z,22.42
2022-10-13T14:54:11.797Z,21.52
2022-10-13T14:56:38.608Z,22.50
2022-10-13T14:59:06.355Z,24.02
2022-10-13T15:01:33.572Z,24.17
2022-10-13T15:04:01.362Z,20.25
2022-10-13T15:06:28.415Z,22.80
2022-10-13T15:08:55.261Z,22.75
2022-10-13T15:11:22.083Z,22.48
2022-10-13T15:13:49.207Z,23.10
2022-10-13T15:16:20.536Z,22.92
2022-10-13T15:18:47.503Z,24.17
2022-10-13T15:21:14.868Z,21.48
2022-10-13T15:23:41.683Z,24.02
2022-10-13T15:26:08.563Z,21.52
2022-10-13T15:28:40.360Z,25.27
2022-10-13T15:31:07.226Z,24.20
2022-10-13T15:33:34.026Z,24.65
2022-10-13T15:36:01.082Z,25.85
2022-10-13T15:38:27.948Z,25.67
2022-10-13T15:41:01.697Z,21.40
2022-10-13T15:43:28.837Z,24.60
2022-10-13T15:45:57.236Z,23.10
2022-10-13T15:48:24.217Z,26.08
2022-10-13T15:50:51.184Z,27.17
2022-10-13T15:53:18.116Z,24.38
2022-10-13T15:55:44.843Z,24.70
2022-10-13T15:58:13.855Z,26.58
2022-10-13T16:00:40.896Z,28.95
2022-10-13T16:03:07.906Z,29.25
2022-10-13T16:05:34.856Z,33.17
2022-10-13T16:08:01.909Z,32.47
2022-10-13T16:10:28.895Z,31.48
2022-10-13T16:12:55.606Z,37.30
2022-10-13T16:15:22.594Z,41.97
2022-10-13T16:17:51.563Z,38.03
2022-10-13T16:20:18.657Z,37.45
2022-10-13T16:22:45.402Z,38.22
2022-10-13T16:25:12.419Z,38.10
2022-10-13T16:27:43.868Z,42.45
2022-10-13T16:30:11.959Z,44.88
2022-10-13T16:32:39.470Z,38.05
2022-10-13T16:35:07.207Z,43.03
2022-10-13T16:37:33.969Z,43.85
2022-10-13T16:40:00.966Z,40.88
2022-10-13T16:42:27.722Z,42.15
2022-10-13T16:44:54.695Z,47.97
2022-10-13T16:47:21.711Z,45.30
2022-10-13T16:49:48.970Z,41.20
2022-10-13T16:52:15.742Z,41.45
2022-10-13T16:54:42.722Z,46.40
2022-10-13T16:57:09.610Z,42.50
2022-10-13T16:59:36.638Z,48.08
2022-10-13T17:02:03.404Z,48.30
2022-10-13T17:04:30.980Z,42.75
2022-10-13T17:06:58.161Z,42.17
2022-10-13T17:09:25.007Z,45.97
2022-10-13T17:11:52.276Z,42.50
2022-10-13T17:14:19.048Z,46.20
2022-10-13T17:16:46.089Z,44.40
2022-10-13T17:19:12.965Z,43.80
2022-10-13T17:21:40.086Z,45.53
2022-10-13T17:24:06.955Z,47.22
2022-10-13T17:26:33.816Z,51.08
2022-10-13T17:29:00.935Z,47.90
2022-10-13T17:31:27.800Z,45.53
2022-10-13T17:33:55.120Z,49.75
2022-10-13T17:36:24.780Z,51.50
2022-10-13T17:38:52.061Z,50.65
2022-10-13T17:41:19.524Z,55.83
2022-10-13T17:43:46.549Z,55.15
2022-10-13T17:46:35.699Z,55.90
2022-10-13T17:49:02.538Z,57.80
2022-10-13T17:51:29.397Z,56.65
2022-10-13T17:53:58.364Z,57.78
2022-10-13T17:56:25.186Z,61.45
2022-10-13T17:58:52.402Z,67.47
2022-10-13T18:01:23.759Z,68.28
2022-10-13T18:03:52.509Z,67.50
2022-10-13T18:06:19.936Z,71.40
2022-10-13T18:08:46.977Z,72.80
2022-10-13T18:11:15.221Z,74.22
2022-10-13T18:13:43.129Z,73.70
2022-10-13T18:16:18.542Z,77.60
2022-10-13T18:18:45.625Z,76.78
2022-10-13T18:21:14.396Z,74.85
2022-10-13T18:23:41.434Z,74.95
2022-10-13T18:26:11.896Z,74.90
2022-10-13T18:28:43.514Z,79.45
2022-10-13T18:31:24.752Z,78.50
2022-10-13T18:33:52.050Z,78.75
2022-10-13T18:36:20.802Z,76.75
2022-10-13T18:38:47.625Z,79.32
2022-10-13T18:41:15.070Z,84.72
2022-10-13T18:43:41.838Z,80.10
2022-10-13T18:46:09.414Z,80.85
2022-10-13T18:48:36.415Z,84.00
2022-10-13T18:51:08.462Z,80.22
2022-10-13T18:53:36.843Z,81.38
2022-10-13T18:56:08.181Z,88.10
2022-10-13T18:58:35.130Z,89.63
2022-10-13T19:01:03.487Z,87.90
2022-10-13T19:03:31.593Z,82.90
2022-10-13T19:05:58.508Z,86.60
2022-10-13T19:08:25.913Z,88.40
2022-10-13T19:10:52.685Z,87.72
2022-10-13T19:13:19.531Z,90.63
2022-10-13T19:15:46.631Z,100.93
2022-10-13T19:18:13.588Z,95.65
2022-10-13T19:20:40.875Z,93.25
2022-10-13T19:23:07.731Z,95.47
2022-10-13T19:25:34.879Z,94.78
2022-10-13T19:28:02.011Z,95.07
2022-10-13T19:30:28.924Z,99.50
2022-10-13T19:32:55.929Z,101.43
2022-10-13T19:35:22.812Z,96.15
2022-10-13T19:37:49.640Z,101.75
2022-10-13T19:40:16.640Z,96.57
2022-10-13T19:42:43.419Z,93.25
2022-10-13T19:45:10.639Z,95.20
2022-10-13T19:47:37.768Z,96.80
2022-10-13T19:50:05.052Z,94.72
2022-10-13T19:52:32.081Z,100.18
2022-10-13T19:55:00.861Z,95.40
2022-10-13T19:57:27.756Z,96.80
2022-10-13T19:59:54.791Z,96.00
2022-10-13T20:02:21.626Z,95.03
2022-10-13T20:04:48.441Z,96.53
2022-10-13T20:07:15.486Z,97.20
2022-10-13T20:09:42.333Z,98.70
2022-10-13T20:12:09.465Z,94.88
2022-10-13T20:14:36.517Z,92.47
2022-10-13T20:17:03.413Z,95.70
2022-10-13T20:19:30.212Z,97.35
2022-10-13T20:21:58.441Z,93.80
2022-10-13T20:24:25.332Z,93.93
2022-10-13T20:26:52.107Z,92.97
2022-10-13T20:29:19.275Z,93.25
2022-10-13T20:31:46.231Z,91.65
2022-10-13T20:34:13.102Z,91.07
2022-10-13T20:36:40.320Z,93.25
2022-10-13T20:39:08.920Z,91.60
2022-10-13T20:41:35.739Z,91.20
2022-10-13T20:44:02.971Z,92.13
2022-10-13T20:46:29.791Z,95.68
2022-10-13T20:49:13.264Z,95.93
2022-10-13T20:51:41.736Z,93.18
2022-10-13T20:54:10.731Z,99.15
2022-10-13T20:56:37.571Z,90.55
2022-10-13T20:59:05.876Z,95.50
2022-10-13T21:01:32.715Z,96.03
2022-10-13T21:03:59.582Z,96.22
2022-10-13T21:06:26.707Z,93.13
2022-10-13T21:08:53.607Z,97.88
2022-10-13T21:11:21.879Z,89.68
2022-10-13T21:13:49.235Z,93.03
2022-10-13T21:16:22.966Z,96.00
2022-10-13T21:18:50.852Z,93.75
2022-10-13T21:21:23.654Z,93.15
2022-10-13T21:23:58.840Z,85.80
2022-10-13T21:26:26.902Z,87.50
2022-10-13T21:28:54.019Z,96.97
2022-10-13T21:31:21.747Z,88.07
2022-10-13T21:33:49.145Z,88.05
2022-10-13T21:36:17.964Z,87.68
2022-10-13T21:38:45.550Z,90.43
2022-10-13T21:41:12.856Z,88.50
2022-10-13T21:43:40.045Z,95.53
2022-10-13T21:46:13.908Z,89.90
2022-10-13T21:48:41.072Z,88.28
2022-10-13T21:51:19.398Z,89.53
2022-10-13T21:53:50.760Z,84.20
2022-10-13T21:56:17.588Z,84.25
2022-10-13T21:58:44.467Z,89.97
2022-10-13T22:01:11.639Z,87.72
2022-10-13T22:03:38.603Z,88.93
2022-10-13T22:06:15.861Z,83.57
2022-10-13T22:08:45.768Z,87.45
2022-10-13T22:11:12.829Z,86.93
2022-10-13T22:13:39.876Z,89.35
2022-10-13T22:16:09.473Z,82.68
2022-10-13T22:18:36.279Z,81.57
2022-10-13T22:21:04.067Z,84.38
2022-10-13T22:23:31.271Z,85.03
2022-10-13T22:25:58.163Z,86.05
2022-10-13T22:28:25.153Z,83.63
2022-10-13T22:30:52.399Z,78.38
2022-10-13T22:33:19.506Z,84.47
2022-10-13T22:35:46.901Z,86.30
2022-10-13T22:38:14.299Z,80.68
2022-10-13T22:40:41.478Z,80.05
2022-10-13T22:43:08.553Z,87.35
2022-10-13T22:45:35.687Z,81.35
2022-10-13T22:48:02.477Z,80.57
2022-10-13T22:50:29.426Z,83.78
2022-10-13T22:52:56.505Z,80.25
2022-10-13T22:55:23.251Z,85.22
2022-10-13T22:57:50.016Z,83.07
2022-10-13T23:00:17.141Z,78.55
2022-10-13T23:02:43.935Z,78.60
2022-10-13T23:05:10.719Z,80.60
2022-10-13T23:07:38.039Z,79.95
2022-10-13T23:10:05.284Z,81.57
2022-10-13T23:12:32.106Z,77.82
2022-10-13T23:14:59.182Z,80.57
2022-10-13T23:17:26.135Z,81.00
2022-10-13T23:19:53.739Z,79.93
2022-10-13T23:22:20.864Z,79.03
2022-10-13T23:24:47.672Z,75.47
2022-10-13T23:27:14.553Z,79.70
2022-10-13T23:29:41.613Z,78.03
2022-10-13T23:32:09.983Z,77.53
2022-10-13T23:34:37.177Z,78.28
2022-10-13T23:37:04.149Z,83.05
2022-10-13T23:39:31.194Z,78.80
2022-10-13T23:41:58.125Z,75.65
2022-10-13T23:44:25.373Z,79.28
2022-10-13T23:46:52.167Z,78.88
2022-10-13T23:49:18.939Z,79.38
2022-10-13T23:51:46.016Z,73.82
2022-10-13T23:54:12.828Z,75.78
2022-10-13T23:56:39.644Z,79.05
2022-10-13T23:59:06.736Z,74.28
